createdAt,value
2023-03-06T00:00:50.455Z,95.90
2023-03-06T00:01:50.419Z,96.22
2023-03-06T00:02:51.768Z,95.90
2023-03-06T00:03:50.420Z,95.80
2023-03-06T00:04:50.408Z,96.22
2023-03-06T00:05:50.401Z,96.11
2023-03-06T00:06:50.350Z,96.64
2023-03-06T00:07:50.374Z,96.22
2023-03-06T00:08:50.373Z,95.90
2023-03-06T00:09:50.349Z,96.33
2023-03-06T00:10:50.305Z,96.53
2023-03-06T00:11:50.309Z,96.47
2023-03-06T00:12:50.326Z,96.58
2023-03-06T00:13:50.307Z,97.68
2023-03-06T00:14:50.266Z,97.68
2023-03-06T00:15:50.371Z,97.10
2023-03-06T00:16:50.246Z,97.58
2023-03-06T00:17:50.241Z,97.37
2023-03-06T00:18:50.258Z,97.37
2023-03-06T00:19:50.237Z,97.37
2023-03-06T00:20:50.204Z,97.52
2023-03-06T00:21:50.201Z,96.74
2023-03-06T00:22:50.204Z,97.31
2023-03-06T00:23:50.163Z,97.00
2023-03-06T00:24:50.209Z,97.05
2023-03-06T00:25:50.179Z,97.31
2023-03-06T00:26:50.145Z,97.68
2023-03-06T00:27:50.156Z,97.89
2023-03-06T00:28:50.151Z,97.78
2023-03-06T00:29:50.141Z,97.78
2023-03-06T00:30:50.120Z,97.47
2023-03-06T00:31:50.127Z,97.89
2023-03-06T00:32:50.061Z,97.68
2023-03-06T00:33:50.084Z,98.41
2023-03-06T00:34:50.094Z,98.10
2023-03-06T00:35:50.082Z,98.26
2023-03-06T00:36:50.018Z,98.31
2023-03-06T00:37:50.042Z,98.21
2023-03-06T00:38:50.037Z,98.31
2023-03-06T00:39:50.026Z,98.31
2023-03-06T00:40:50.003Z,98.72
2023-03-06T00:41:49.984Z,99.35
2023-03-06T00:42:49.989Z,99.10
2023-03-06T00:43:49.989Z,99.15
2023-03-06T00:44:49.940Z,99.10
2023-03-06T00:45:49.963Z,98.68
2023-03-06T00:46:49.948Z,99.04
2023-03-06T00:47:49.910Z,99.52
2023-03-06T00:48:49.936Z,98.26
2023-03-06T00:49:49.915Z,98.26
2023-03-06T00:50:49.885Z,98.26
2023-03-06T00:51:49.884Z,99.10
2023-03-06T00:52:49.898Z,99.10
2023-03-06T00:53:49.864Z,99.20
2023-03-06T00:54:49.851Z,98.99
2023-03-06T00:55:49.854Z,99.26
2023-03-06T00:56:49.812Z,99.20
2023-03-06T00:57:49.816Z,98.99
2023-03-06T00:58:49.825Z,99.20
2023-03-06T00:59:49.837Z,98.99
2023-03-06T01:00:49.797Z,99.20
2023-03-06T01:01:49.810Z,99.20
2023-03-06T01:02:49.812Z,99.10
2023-03-06T01:03:49.765Z,98.89
2023-03-06T01:04:49.766Z,99.20
2023-03-06T01:05:49.756Z,99.20
2023-03-06T01:06:49.727Z,99.31
2023-03-06T01:07:49.719Z,99.31
2023-03-06T01:08:49.717Z,98.79
2023-03-06T01:09:49.701Z,99.62
2023-03-06T01:10:49.681Z,99.20
2023-03-06T01:11:49.682Z,99.20
2023-03-06T01:12:49.657Z,99.41
2023-03-06T01:13:49.647Z,99.20
2023-03-06T01:14:49.662Z,99.47
2023-03-06T01:15:49.663Z,99.73
2023-03-06T01:16:49.608Z,99.57
2023-03-06T01:17:50.625Z,99.47
2023-03-06T01:18:49.622Z,99.89
2023-03-06T01:19:49.582Z,99.47
2023-03-06T01:20:49.618Z,99.37
2023-03-06T01:21:49.573Z,99.05
2023-03-06T01:22:50.565Z,98.95
2023-03-06T01:23:49.564Z,99.16
2023-03-06T01:24:49.557Z,99.11
2023-03-06T01:25:49.528Z,99.05
2023-03-06T01:26:49.525Z,98.95
2023-03-06T01:27:49.554Z,98.95
2023-03-06T01:28:49.500Z,98.85
2023-03-06T01:29:49.491Z,99.47
2023-03-06T01:30:49.490Z,98.95
2023-03-06T01:31:49.514Z,99.26
2023-03-06T01:32:49.431Z,99.16
2023-03-06T01:33:49.441Z,98.80
2023-03-06T01:34:49.464Z,98.85
2023-03-06T01:35:49.456Z,98.80
2023-03-06T01:36:49.453Z,99.43
2023-03-06T01:37:49.415Z,99.05
2023-03-06T01:38:49.378Z,99.01
2023-03-06T01:39:49.408Z,98.95
2023-03-06T01:40:49.390Z,99.11
2023-03-06T01:41:49.384Z,98.90
2023-03-06T01:42:49.344Z,98.90
2023-03-06T01:43:49.342Z,98.95
2023-03-06T01:44:49.353Z,99.26
2023-03-06T01:45:49.396Z,98.90
2023-03-06T01:46:49.327Z,99.26
2023-03-06T01:47:49.296Z,99.11
2023-03-06T01:48:49.328Z,99.11
2023-03-06T01:49:49.295Z,99.32
2023-03-06T01:50:49.247Z,98.90
2023-03-06T01:51:49.284Z,99.11
2023-03-06T01:52:49.236Z,99.01
2023-03-06T01:53:49.237Z,99.11
2023-03-06T01:54:49.235Z,98.90
2023-03-06T01:55:49.225Z,99.01
2023-03-06T01:56:49.208Z,99.22
2023-03-06T01:57:49.196Z,99.11
2023-03-06T01:58:49.210Z,99.11
2023-03-06T01:59:49.161Z,98.80
2023-03-06T02:00:49.286Z,99.11
2023-03-06T02:01:49.165Z,99.01
2023-03-06T02:02:49.144Z,99.22
2023-03-06T02:03:49.134Z,99.11
2023-03-06T02:04:49.151Z,99.11
2023-03-06T02:05:49.165Z,99.22
2023-03-06T02:06:49.098Z,99.01
2023-03-06T02:07:49.112Z,98.90
2023-03-06T02:08:49.084Z,99.11
2023-03-06T02:09:49.086Z,98.90
2023-03-06T02:10:49.073Z,98.90
2023-03-06T02:11:49.109Z,98.90
2023-03-06T02:12:49.061Z,99.11
2023-03-06T02:13:49.040Z,99.22
2023-03-06T02:14:49.085Z,99.22
2023-03-06T02:15:49.021Z,99.11
2023-03-06T02:16:49.056Z,99.01
2023-03-06T02:17:48.997Z,99.22
2023-03-06T02:18:49.020Z,99.22
2023-03-06T02:19:48.982Z,98.90
2023-03-06T02:20:48.946Z,99.22
2023-03-06T02:21:48.957Z,99.01
2023-03-06T02:22:48.962Z,99.22
2023-03-06T02:23:48.921Z,99.32
2023-03-06T02:24:48.957Z,99.11
2023-03-06T02:25:48.920Z,99.43
2023-03-06T02:26:48.897Z,98.38
2023-03-06T02:27:48.899Z,98.07
2023-03-06T02:28:48.895Z,98.07
2023-03-06T02:29:48.869Z,97.97
2023-03-06T02:30:48.878Z,98.34
2023-03-06T02:31:48.873Z,98.28
2023-03-06T02:32:48.821Z,98.13
2023-03-06T02:33:48.825Z,98.38
2023-03-06T02:34:48.842Z,98.65
2023-03-06T02:35:48.874Z,98.55
2023-03-06T02:36:48.793Z,98.49
2023-03-06T02:37:48.786Z,98.38
2023-03-06T02:38:48.801Z,98.07
2023-03-06T02:39:48.750Z,98.18
2023-03-06T02:40:48.789Z,98.23
2023-03-06T02:41:48.751Z,98.07
2023-03-06T02:42:48.725Z,98.23
2023-03-06T02:43:48.734Z,98.02
2023-03-06T02:44:48.745Z,98.18
2023-03-06T02:45:48.793Z,98.07
2023-03-06T02:46:48.697Z,98.02
2023-03-06T02:47:48.717Z,98.38
2023-03-06T02:48:48.683Z,98.07
2023-03-06T02:49:48.665Z,98.28
2023-03-06T02:50:48.648Z,98.07
2023-03-06T02:51:48.646Z,98.18
2023-03-06T02:52:48.641Z,99.32
2023-03-06T02:53:48.622Z,99.32
2023-03-06T02:54:48.584Z,98.90
2023-03-06T02:55:48.627Z,99.11
2023-03-06T02:56:48.586Z,99.01
2023-03-06T02:57:48.570Z,99.07
2023-03-06T02:58:48.587Z,99.32
2023-03-06T02:59:48.553Z,99.22
2023-03-06T03:00:48.560Z,99.43
2023-03-06T03:01:48.584Z,99.43
2023-03-06T03:02:48.532Z,99.38
2023-03-06T03:03:48.519Z,98.65
2023-03-06T03:04:48.540Z,97.92
2023-03-06T03:05:48.488Z,98.02
2023-03-06T03:06:48.465Z,98.13
2023-03-06T03:07:48.466Z,98.02
2023-03-06T03:08:48.498Z,97.92
2023-03-06T03:09:48.488Z,98.13
2023-03-06T03:10:48.425Z,98.34
2023-03-06T03:11:48.453Z,98.34
2023-03-06T03:12:48.395Z,98.34
2023-03-06T03:13:48.429Z,97.81
2023-03-06T03:14:48.422Z,98.34
2023-03-06T03:15:48.405Z,98.23
2023-03-06T03:16:48.354Z,98.23
2023-03-06T03:17:48.362Z,98.02
2023-03-06T03:18:48.388Z,98.13
2023-03-06T03:19:48.337Z,98.13
2023-03-06T03:20:48.352Z,98.23
2023-03-06T03:21:48.327Z,97.97
2023-03-06T03:22:48.314Z,97.92
2023-03-06T03:23:48.302Z,97.97
2023-03-06T03:24:48.370Z,98.65
2023-03-06T03:25:48.288Z,98.44
2023-03-06T03:26:48.259Z,98.34
2023-03-06T03:27:48.309Z,98.90
2023-03-06T03:28:48.236Z,98.90
2023-03-06T03:29:48.256Z,98.90
2023-03-06T03:30:48.301Z,98.90
2023-03-06T03:31:48.217Z,99.11
2023-03-06T03:32:48.194Z,98.80
2023-03-06T03:33:48.192Z,99.11
2023-03-06T03:34:48.221Z,98.80
2023-03-06T03:35:48.193Z,99.01
2023-03-06T03:36:48.183Z,99.53
2023-03-06T03:37:48.152Z,99.53
2023-03-06T03:38:48.126Z,99.43
2023-03-06T03:39:48.133Z,99.53
2023-03-06T03:40:48.171Z,99.22
2023-03-06T03:41:48.125Z,99.53
2023-03-06T03:42:48.082Z,99.63
2023-03-06T03:43:48.107Z,99.95
2023-03-06T03:44:48.056Z,99.43
2023-03-06T03:45:48.066Z,99.74
2023-03-06T03:46:48.131Z,99.74
2023-03-06T03:47:48.067Z,99.84
2023-03-06T03:48:48.017Z,99.43
2023-03-06T03:49:48.021Z,99.95
2023-03-06T03:50:48.042Z,99.59
2023-03-06T03:51:48.023Z,99.63
2023-03-06T03:52:47.974Z,99.74
2023-03-06T03:53:47.982Z,99.74
2023-03-06T03:54:47.990Z,99.63
2023-03-06T03:55:47.990Z,99.80
2023-03-06T03:56:47.940Z,99.69
2023-03-06T03:57:47.954Z,99.74
2023-03-06T03:58:47.962Z,99.99
2023-03-06T03:59:47.951Z,99.84
2023-03-06T04:00:47.924Z,99.80
2023-03-06T04:01:47.915Z,99.99
2023-03-06T04:02:47.891Z,99.90
2023-03-06T04:03:47.890Z,99.48
2023-03-06T04:04:47.935Z,99.63
2023-03-06T04:05:47.854Z,99.84
2023-03-06T04:06:47.822Z,99.80
2023-03-06T04:07:47.856Z,99.80
2023-03-06T04:08:47.824Z,99.95
2023-03-06T04:09:47.809Z,99.48
2023-03-06T04:10:47.816Z,99.48
2023-03-06T04:11:47.787Z,99.90
2023-03-06T04:12:47.775Z,99.90
2023-03-06T04:13:47.754Z,99.99
2023-03-06T04:14:47.812Z,99.90
2023-03-06T04:15:47.729Z,99.90
2023-03-06T04:16:47.765Z,99.90
2023-03-06T04:17:47.722Z,99.96
2023-03-06T04:18:47.731Z,99.38
2023-03-06T04:19:47.690Z,99.48
2023-03-06T04:20:47.716Z,99.99
2023-03-06T04:21:47.683Z,99.99
2023-03-06T04:22:47.654Z,99.48
2023-03-06T04:23:47.676Z,99.38
2023-03-06T04:24:47.658Z,99.99
2023-03-06T04:25:47.648Z,99.69
2023-03-06T04:26:47.617Z,99.80
2023-03-06T04:27:47.622Z,99.90
2023-03-06T04:28:47.620Z,99.99
2023-03-06T04:29:47.616Z,99.95
2023-03-06T04:30:47.575Z,99.69
2023-03-06T04:31:47.650Z,99.80
2023-03-06T04:32:47.548Z,99.90
2023-03-06T04:33:47.549Z,99.90
2023-03-06T04:34:47.558Z,99.99
2023-03-06T04:35:47.638Z,99.99
2023-03-06T04:36:47.535Z,99.99
2023-03-06T04:37:47.529Z,99.99
2023-03-06T04:38:47.546Z,99.99
2023-03-06T04:39:47.512Z,99.99
2023-03-06T04:40:47.509Z,99.99
2023-03-06T04:41:47.513Z,99.99
2023-03-06T04:42:47.459Z,99.99
2023-03-06T04:43:47.452Z,99.99
2023-03-06T04:44:47.472Z,99.99
2023-03-06T04:45:47.498Z,99.99
2023-03-06T04:46:47.410Z,99.99
2023-03-06T04:47:47.435Z,99.99
2023-03-06T04:48:47.387Z,99.99
2023-03-06T04:49:47.410Z,99.99
2023-03-06T04:50:47.393Z,99.99
2023-03-06T04:51:47.389Z,99.99
2023-03-06T04:52:47.356Z,99.99
2023-03-06T04:53:47.360Z,99.99
2023-03-06T04:54:47.359Z,99.99
2023-03-06T04:55:47.348Z,99.99
2023-03-06T04:56:47.300Z,99.99
2023-03-06T04:57:47.335Z,99.99
2023-03-06T04:58:47.312Z,99.99
2023-03-06T04:59:47.298Z,99.99
2023-03-06T05:00:47.291Z,99.99
2023-03-06T05:01:47.287Z,99.99
2023-03-06T05:02:47.266Z,99.99
2023-03-06T05:03:47.258Z,99.99
2023-03-06T05:04:47.244Z,99.99
2023-03-06T05:05:47.234Z,99.99
2023-03-06T05:06:47.196Z,99.99
2023-03-06T05:07:47.212Z,99.99
2023-03-06T05:08:47.213Z,99.99
2023-03-06T05:09:47.202Z,99.99
2023-03-06T05:10:47.143Z,99.99
2023-03-06T05:11:47.174Z,99.99
2023-03-06T05:12:47.127Z,99.99
2023-03-06T05:13:47.128Z,99.99
2023-03-06T05:14:48.088Z,99.99
2023-03-06T05:15:48.130Z,99.99
2023-03-06T05:16:47.161Z,99.99
2023-03-06T05:17:47.089Z,99.99
2023-03-06T05:18:49.406Z,99.99
2023-03-06T05:19:47.067Z,99.99
2023-03-06T05:20:47.108Z,99.99
2023-03-06T05:21:47.071Z,99.99
2023-03-06T05:22:47.029Z,99.99
2023-03-06T05:23:47.034Z,99.99
2023-03-06T05:24:47.053Z,99.99
2023-03-06T05:25:47.024Z,99.99
2023-03-06T05:26:46.986Z,99.99
2023-03-06T05:27:47.023Z,99.99
2023-03-06T05:28:46.967Z,99.99
2023-03-06T05:29:46.972Z,99.99
2023-03-06T05:30:46.974Z,99.99
2023-03-06T05:31:47.004Z,99.99
2023-03-06T05:32:46.987Z,99.99
2023-03-06T05:33:46.925Z,99.99
2023-03-06T05:34:46.937Z,99.99
2023-03-06T05:35:46.919Z,99.99
2023-03-06T05:36:46.925Z,99.99
2023-03-06T05:37:46.898Z,99.99
2023-03-06T05:38:46.866Z,99.99
2023-03-06T05:39:46.872Z,99.99
2023-03-06T05:40:46.885Z,99.99
2023-03-06T05:41:46.842Z,99.99
2023-03-06T05:42:46.826Z,99.99
2023-03-06T05:43:46.847Z,99.99
2023-03-06T05:44:46.802Z,99.99
2023-03-06T05:45:46.839Z,99.99
2023-03-06T05:46:46.808Z,99.99
2023-03-06T05:47:46.796Z,99.99
2023-03-06T05:48:47.106Z,99.99
2023-03-06T05:49:47.761Z,99.99
2023-03-06T05:50:46.789Z,99.99
2023-03-06T05:51:46.784Z,99.99
2023-03-06T05:52:46.752Z,99.99
2023-03-06T05:53:46.724Z,99.99
2023-03-06T05:54:46.698Z,99.99
2023-03-06T05:55:46.715Z,99.99
2023-03-06T05:56:46.701Z,99.99
2023-03-06T05:57:46.692Z,99.99
2023-03-06T05:58:46.654Z,99.99
2023-03-06T05:59:46.661Z,99.99
2023-03-06T06:00:46.689Z,99.99
2023-03-06T06:01:46.650Z,99.99
2023-03-06T06:02:46.609Z,99.99
2023-03-06T06:03:46.663Z,99.99
2023-03-06T06:04:46.625Z,99.99
2023-03-06T06:05:46.607Z,99.99
2023-03-06T06:06:46.566Z,99.99
2023-03-06T06:07:46.581Z,99.99
2023-03-06T06:08:46.575Z,99.99
2023-03-06T06:09:46.566Z,99.99
2023-03-06T06:10:46.568Z,99.99
2023-03-06T06:11:46.530Z,99.99
2023-03-06T06:12:46.525Z,99.99
2023-03-06T06:13:46.504Z,99.99
2023-03-06T06:14:46.521Z,99.99
2023-03-06T06:15:46.535Z,99.99
2023-03-06T06:16:46.508Z,99.99
2023-03-06T06:17:46.470Z,99.99
2023-03-06T06:18:46.462Z,99.99
2023-03-06T06:19:46.446Z,99.99
2023-03-06T06:20:46.450Z,99.99
2023-03-06T06:21:46.441Z,99.99
2023-03-06T06:22:46.403Z,99.99
2023-03-06T06:23:46.432Z,99.99
2023-03-06T06:24:46.386Z,99.99
2023-03-06T06:25:46.393Z,99.99
2023-03-06T06:26:46.407Z,99.99
2023-03-06T06:27:46.376Z,99.99
2023-03-06T06:28:46.342Z,99.99
2023-03-06T06:29:46.344Z,99.99
2023-03-06T06:30:46.389Z,99.99
2023-03-06T06:31:46.351Z,99.99
2023-03-06T06:32:46.307Z,99.99
2023-03-06T06:33:46.313Z,99.99
2023-03-06T06:34:46.302Z,99.99
2023-03-06T06:35:46.466Z,99.99
2023-03-06T06:36:46.272Z,99.99
2023-03-06T06:37:46.269Z,99.99
2023-03-06T06:38:46.271Z,99.99
2023-03-06T06:39:46.263Z,99.99
2023-03-06T06:41:04.700Z,99.99
2023-03-06T06:42:02.302Z,99.99
2023-03-06T06:42:48.192Z,99.99
2023-03-06T06:43:46.202Z,99.99
2023-03-06T06:44:46.212Z,99.99
2023-03-06T06:45:46.424Z,99.99
2023-03-06T06:47:48.192Z,99.99
2023-03-06T06:48:46.127Z,99.99
2023-03-06T06:49:46.136Z,99.99
2023-03-06T06:50:46.163Z,99.99
2023-03-06T06:51:46.134Z,99.99
2023-03-06T06:52:46.168Z,99.99
2023-03-06T06:53:46.097Z,99.99
2023-03-06T06:54:46.117Z,99.99
2023-03-06T06:55:46.064Z,99.99
2023-03-06T06:56:46.098Z,99.99
2023-03-06T06:57:46.083Z,99.99
2023-03-06T06:58:46.024Z,99.99
2023-03-06T06:59:47.054Z,99.99
2023-03-06T07:00:46.049Z,99.99
2023-03-06T07:01:46.136Z,99.99
2023-03-06T07:02:45.983Z,99.99
2023-03-06T07:03:46.015Z,99.99
2023-03-06T07:05:01.884Z,99.91
2023-03-06T07:05:47.976Z,99.91
2023-03-06T07:06:45.965Z,99.71
2023-03-06T07:07:45.958Z,99.76
2023-03-06T07:08:45.956Z,99.87
2023-03-06T07:09:45.936Z,99.81
2023-03-06T07:10:45.899Z,99.81
2023-03-06T07:11:45.926Z,99.81
2023-03-06T07:12:45.893Z,99.60
2023-03-06T07:13:45.894Z,99.81
2023-03-06T07:14:45.906Z,99.71
2023-03-06T07:15:45.968Z,99.99
2023-03-06T07:16:45.841Z,99.81
2023-03-06T07:17:46.711Z,99.81
2023-03-06T07:18:45.847Z,99.99
2023-03-06T07:19:45.826Z,99.91
2023-03-06T07:20:45.829Z,99.99
2023-03-06T07:21:45.816Z,99.99
2023-03-06T07:22:51.523Z,99.99
2023-03-06T07:23:47.783Z,99.99
2023-03-06T07:24:45.763Z,99.99
2023-03-06T07:25:45.771Z,99.99
2023-03-06T07:26:45.729Z,99.99
2023-03-06T07:27:52.784Z,99.99
2023-03-06T07:28:52.645Z,99.99
2023-03-06T07:29:47.711Z,99.99
2023-03-06T07:30:45.738Z,99.81
2023-03-06T07:31:45.745Z,99.75
2023-03-06T07:32:45.677Z,99.99
2023-03-06T07:33:45.675Z,99.96
2023-03-06T07:34:45.702Z,99.91
2023-03-06T07:35:45.703Z,99.99
2023-03-06T07:36:45.632Z,99.91
2023-03-06T07:37:45.635Z,99.71
2023-03-06T07:38:45.663Z,99.71
2023-03-06T07:39:45.624Z,99.81
2023-03-06T07:40:45.600Z,99.60
2023-03-06T07:41:45.599Z,99.40
2023-03-06T07:42:45.604Z,99.85
2023-03-06T07:43:45.582Z,99.85
2023-03-06T07:44:45.578Z,99.44
2023-03-06T07:45:45.567Z,99.71
2023-03-06T07:46:45.609Z,99.71
2023-03-06T07:47:45.521Z,99.87
2023-03-06T07:48:45.540Z,99.87
2023-03-06T07:49:45.514Z,99.24
2023-03-06T07:50:45.498Z,99.35
2023-03-06T07:51:45.524Z,99.35
2023-03-06T07:52:45.473Z,99.20
2023-03-06T07:53:45.468Z,98.93
2023-03-06T07:54:45.473Z,99.10
2023-03-06T07:55:45.477Z,98.36
2023-03-06T07:56:45.437Z,98.88
2023-03-06T07:57:45.420Z,98.88
2023-03-06T07:58:45.461Z,98.53
2023-03-06T07:59:45.410Z,98.99
2023-03-06T08:00:45.420Z,97.91
2023-03-06T08:01:45.406Z,98.11
2023-03-06T08:02:45.390Z,98.11
2023-03-06T08:03:45.470Z,97.96
2023-03-06T08:04:45.368Z,97.96
2023-03-06T08:05:45.347Z,97.19
2023-03-06T08:06:45.336Z,96.98
2023-03-06T08:07:45.333Z,96.98
2023-03-06T08:08:45.355Z,96.94
2023-03-06T08:09:45.303Z,96.42
2023-03-06T08:10:45.281Z,95.03
2023-03-06T08:11:45.326Z,95.23
2023-03-06T08:12:45.290Z,94.78
2023-03-06T08:13:45.281Z,94.57
2023-03-06T08:14:45.237Z,94.78
2023-03-06T08:15:45.265Z,94.67
2023-03-06T08:16:45.226Z,94.11
2023-03-06T08:17:45.248Z,93.49
2023-03-06T08:18:46.554Z,92.80
2023-03-06T08:19:46.208Z,93.68
2023-03-06T08:20:45.182Z,93.41
2023-03-06T08:21:45.190Z,94.51
2023-03-06T08:22:45.204Z,94.67
2023-03-06T08:23:45.192Z,94.98
2023-03-06T08:24:45.169Z,93.57
2023-03-06T08:25:45.138Z,94.20
2023-03-06T08:26:45.121Z,94.92
2023-03-06T08:27:45.122Z,94.88
2023-03-06T08:28:45.160Z,94.78
2023-03-06T08:29:45.104Z,94.01
2023-03-06T08:30:45.077Z,93.01
2023-03-06T08:31:45.132Z,92.49
2023-03-06T08:32:45.130Z,92.38
2023-03-06T08:33:45.077Z,92.45
2023-03-06T08:34:45.072Z,92.35
2023-03-06T08:35:45.080Z,93.02
2023-03-06T08:36:45.010Z,92.61
2023-03-06T08:37:45.051Z,91.83
2023-03-06T08:38:45.042Z,91.62
2023-03-06T08:39:44.996Z,91.10
2023-03-06T08:40:45.062Z,91.20
2023-03-06T08:41:44.977Z,91.52
2023-03-06T08:42:45.013Z,91.16
2023-03-06T08:43:44.978Z,91.47
2023-03-06T08:44:44.947Z,91.06
2023-03-06T08:45:44.988Z,89.65
2023-03-06T08:46:44.958Z,89.42
2023-03-06T08:47:44.926Z,90.25
2023-03-06T08:48:44.940Z,92.22
2023-03-06T08:49:44.956Z,91.80
2023-03-06T08:50:44.873Z,91.45
2023-03-06T08:51:44.920Z,90.25
2023-03-06T08:52:44.890Z,90.77
2023-03-06T08:53:44.883Z,90.66
2023-03-06T08:54:44.841Z,91.76
2023-03-06T08:55:44.855Z,90.97
2023-03-06T08:56:44.823Z,91.08
2023-03-06T08:57:44.805Z,90.00
2023-03-06T08:58:44.830Z,90.72
2023-03-06T08:59:44.793Z,89.83
2023-03-06T09:00:44.866Z,90.62
2023-03-06T09:01:44.820Z,89.48
2023-03-06T09:02:44.829Z,88.48
2023-03-06T09:03:44.788Z,89.73
2023-03-06T09:04:44.765Z,88.48
2023-03-06T09:05:44.743Z,86.30
2023-03-06T09:06:44.712Z,87.65
2023-03-06T09:07:44.733Z,88.59
2023-03-06T09:08:44.871Z,88.17
2023-03-06T09:09:44.756Z,88.28
2023-03-06T09:10:44.733Z,86.82
2023-03-06T09:11:44.713Z,86.82
2023-03-06T09:12:50.563Z,87.51
2023-03-06T09:13:46.659Z,88.13
2023-03-06T09:14:44.640Z,86.99
2023-03-06T09:15:44.649Z,86.78
2023-03-06T09:16:44.720Z,85.33
2023-03-06T09:17:44.685Z,85.53
2023-03-06T09:18:44.611Z,86.41
2023-03-06T09:19:44.650Z,87.19
2023-03-06T09:20:44.572Z,86.99
2023-03-06T09:21:44.594Z,86.99
2023-03-06T09:22:44.576Z,85.99
2023-03-06T09:23:44.600Z,85.57
2023-03-06T09:24:44.549Z,86.47
2023-03-06T09:25:44.559Z,86.41
2023-03-06T09:26:46.683Z,86.26
2023-03-06T09:27:45.523Z,85.78
2023-03-06T09:28:44.518Z,85.02
2023-03-06T09:29:44.491Z,84.81
2023-03-06T09:30:44.483Z,84.70
2023-03-06T09:31:44.512Z,85.95
2023-03-06T09:32:44.518Z,83.98
2023-03-06T09:33:44.497Z,81.59
2023-03-06T09:34:44.472Z,81.35
2023-03-06T09:35:44.494Z,81.04
2023-03-06T09:36:56.081Z,80.83
2023-03-06T09:37:46.413Z,81.24
2023-03-06T09:38:44.435Z,82.24
2023-03-06T09:39:44.410Z,82.39
2023-03-06T09:40:44.378Z,82.51
2023-03-06T09:41:44.397Z,81.89
2023-03-06T09:42:44.409Z,81.79
2023-03-06T09:43:44.326Z,81.06
2023-03-06T09:44:44.360Z,78.99
2023-03-06T09:45:44.405Z,79.75
2023-03-06T09:46:44.318Z,76.85
2023-03-06T09:47:44.318Z,77.89
2023-03-06T09:48:44.348Z,79.13
2023-03-06T09:49:44.307Z,76.78
2023-03-06T09:50:44.267Z,78.41
2023-03-06T09:51:44.296Z,79.55
2023-03-06T09:52:44.253Z,79.34
2023-03-06T09:53:44.272Z,79.24
2023-03-06T09:54:45.275Z,78.51
2023-03-06T09:55:44.237Z,78.30
2023-03-06T09:56:44.205Z,76.95
2023-03-06T09:57:44.221Z,78.51
2023-03-06T09:58:44.243Z,78.51
2023-03-06T09:59:44.183Z,77.37
2023-03-06T10:00:44.210Z,77.58
2023-03-06T10:01:44.192Z,78.99
2023-03-06T10:02:44.221Z,79.71
2023-03-06T10:03:44.147Z,78.47
2023-03-06T10:04:44.252Z,79.13
2023-03-06T10:05:44.140Z,79.71
2023-03-06T10:06:44.124Z,78.92
2023-03-06T10:07:44.131Z,78.51
2023-03-06T10:08:44.118Z,78.09
2023-03-06T10:09:44.118Z,79.03
2023-03-06T10:10:44.102Z,80.02
2023-03-06T10:11:44.094Z,77.44
2023-03-06T10:12:44.059Z,76.61
2023-03-06T10:13:44.051Z,75.26
2023-03-06T10:14:44.258Z,76.88
2023-03-06T10:15:44.119Z,78.92
2023-03-06T10:16:44.022Z,75.84
2023-03-06T10:17:44.009Z,76.23
2023-03-06T10:18:44.023Z,75.92
2023-03-06T10:19:44.001Z,73.84
2023-03-06T10:20:43.981Z,73.01
2023-03-06T10:21:44.000Z,73.63
2023-03-06T10:22:48.059Z,73.53
2023-03-06T10:23:45.937Z,73.05
2023-03-06T10:24:43.985Z,74.26
2023-03-06T10:25:43.959Z,74.50
2023-03-06T10:26:44.014Z,75.09
2023-03-06T10:27:43.912Z,71.91
2023-03-06T10:28:43.929Z,71.42
2023-03-06T10:29:56.349Z,73.70
2023-03-06T10:30:45.948Z,73.77
2023-03-06T10:31:43.896Z,73.15
2023-03-06T10:32:48.663Z,71.80
2023-03-06T10:33:45.851Z,72.22
2023-03-06T10:34:43.859Z,73.53
2023-03-06T10:35:43.903Z,72.60
2023-03-06T10:36:43.809Z,71.98
2023-03-06T10:37:43.810Z,73.32
2023-03-06T10:38:43.832Z,69.94
2023-03-06T10:39:43.843Z,70.36
2023-03-06T10:40:43.931Z,69.87
2023-03-06T10:41:45.305Z,71.32
2023-03-06T10:42:43.760Z,70.00
2023-03-06T10:43:43.781Z,71.87
2023-03-06T10:44:43.770Z,72.15
2023-03-06T10:45:48.932Z,71.42
2023-03-06T10:46:45.735Z,71.42
2023-03-06T10:47:43.714Z,73.70
2023-03-06T10:48:44.733Z,73.05
2023-03-06T10:49:43.707Z,71.63
2023-03-06T10:50:43.689Z,72.05
2023-03-06T10:51:43.693Z,73.60
2023-03-06T10:52:43.683Z,72.98
2023-03-06T10:53:43.662Z,74.67
2023-03-06T10:54:43.650Z,72.98
2023-03-06T10:55:43.648Z,74.01
2023-03-06T10:56:43.669Z,74.95
2023-03-06T10:57:43.615Z,74.11
2023-03-06T10:58:43.619Z,73.67
2023-03-06T10:59:43.612Z,72.15
2023-03-06T11:00:43.565Z,72.05
2023-03-06T11:01:43.630Z,71.73
2023-03-06T11:02:43.575Z,72.42
2023-03-06T11:03:43.575Z,70.39
2023-03-06T11:04:43.594Z,71.84
2023-03-06T11:05:43.530Z,72.11
2023-03-06T11:06:43.543Z,72.22
2023-03-06T11:07:43.520Z,72.56
2023-03-06T11:08:43.526Z,70.97
2023-03-06T11:09:43.519Z,71.39
2023-03-06T11:10:43.473Z,73.88
2023-03-06T11:11:43.500Z,74.88
2023-03-06T11:12:43.465Z,74.12
2023-03-06T11:13:43.457Z,71.46
2023-03-06T11:14:43.502Z,73.05
2023-03-06T11:15:43.452Z,74.53
2023-03-06T11:16:43.413Z,73.01
2023-03-06T11:17:43.413Z,72.11
2023-03-06T11:18:43.434Z,72.81
2023-03-06T11:19:43.396Z,74.88
2023-03-06T11:20:51.601Z,72.08
2023-03-06T11:21:45.381Z,71.28
2023-03-06T11:22:43.376Z,70.46
2023-03-06T11:23:43.366Z,73.77
2023-03-06T11:24:43.332Z,73.15
2023-03-06T11:25:43.331Z,74.77
2023-03-06T11:26:43.361Z,73.63
2023-03-06T11:27:43.311Z,74.77
2023-03-06T11:28:43.315Z,74.36
2023-03-06T11:29:43.291Z,71.56
2023-03-06T11:30:43.266Z,71.49
2023-03-06T11:31:43.329Z,70.04
2023-03-06T11:32:43.265Z,71.70
2023-03-06T11:33:43.256Z,71.73
2023-03-06T11:34:43.225Z,71.42
2023-03-06T11:35:43.253Z,73.08
2023-03-06T11:36:43.252Z,74.53
2023-03-06T11:37:43.214Z,73.22
2023-03-06T11:38:43.225Z,73.74
2023-03-06T11:39:43.193Z,74.67
2023-03-06T11:40:43.153Z,74.67
2023-03-06T11:41:43.163Z,74.46
2023-03-06T11:42:43.164Z,74.36
2023-03-06T11:43:43.130Z,74.74
2023-03-06T11:44:43.187Z,75.19
2023-03-06T11:45:43.113Z,74.77
2023-03-06T11:46:43.136Z,74.36
2023-03-06T11:47:43.091Z,73.32
2023-03-06T11:48:43.100Z,72.60
2023-03-06T11:49:43.099Z,72.22
2023-03-06T11:50:43.047Z,73.25
2023-03-06T11:51:43.091Z,74.26
2023-03-06T11:52:43.042Z,74.98
2023-03-06T11:53:43.051Z,75.50
2023-03-06T11:54:43.051Z,75.40
2023-03-06T11:55:43.028Z,74.63
2023-03-06T11:56:42.997Z,74.95
2023-03-06T11:57:43.020Z,73.49
2023-03-06T11:58:43.010Z,74.95
2023-03-06T11:59:42.961Z,74.74
2023-03-06T12:00:42.982Z,74.84
2023-03-06T12:01:43.015Z,74.74
2023-03-06T12:02:42.944Z,72.56
2023-03-06T12:03:42.941Z,73.08
2023-03-06T12:04:42.950Z,73.28
2023-03-06T12:05:42.945Z,72.80
2023-03-06T12:06:42.896Z,73.77
2023-03-06T12:07:42.914Z,74.26
2023-03-06T12:08:42.888Z,73.25
2023-03-06T12:09:42.871Z,74.36
2023-03-06T12:10:42.885Z,75.92
2023-03-06T12:11:42.860Z,75.29
2023-03-06T12:12:42.855Z,75.67
2023-03-06T12:13:42.853Z,75.92
2023-03-06T12:14:42.861Z,75.71
2023-03-06T12:15:42.802Z,74.81
2023-03-06T12:16:42.877Z,74.40
2023-03-06T12:17:42.814Z,75.92
2023-03-06T12:18:42.774Z,75.92
2023-03-06T12:19:42.772Z,76.12
2023-03-06T12:20:42.809Z,75.81
2023-03-06T12:21:42.770Z,77.99
2023-03-06T12:22:44.326Z,78.61
2023-03-06T12:23:42.747Z,78.96
2023-03-06T12:24:42.751Z,78.96
2023-03-06T12:25:42.751Z,78.96
2023-03-06T12:26:42.689Z,79.69
2023-03-06T12:27:42.697Z,78.99
2023-03-06T12:28:43.182Z,80.31
2023-03-06T12:29:42.690Z,79.48
2023-03-06T12:30:42.667Z,78.89
2023-03-06T12:31:42.703Z,79.93
2023-03-06T12:32:42.675Z,79.93
2023-03-06T12:33:42.650Z,79.20
2023-03-06T12:34:42.639Z,78.89
2023-03-06T12:35:42.675Z,79.20
2023-03-06T12:36:42.603Z,79.06
2023-03-06T12:37:42.592Z,78.27
2023-03-06T12:38:42.626Z,79.10
2023-03-06T12:39:42.570Z,78.37
2023-03-06T12:40:42.578Z,79.27
2023-03-06T12:41:42.616Z,80.73
2023-03-06T12:42:42.534Z,79.90
2023-03-06T12:43:42.535Z,79.48
2023-03-06T12:44:42.559Z,79.61
2023-03-06T12:45:42.573Z,79.93
2023-03-06T12:46:42.513Z,80.18
2023-03-06T12:47:42.527Z,80.90
2023-03-06T12:48:42.518Z,81.18
2023-03-06T12:49:42.469Z,81.90
2023-03-06T12:50:42.481Z,80.55
2023-03-06T12:51:42.472Z,81.18
2023-03-06T12:52:42.418Z,81.80
2023-03-06T12:53:42.423Z,81.59